createdAt,value
2023-01-01T00:00:56.330Z,0
2023-01-01T00:01:36.852Z,0
2023-01-01T00:02:17.428Z,0
2023-01-01T00:02:58.073Z,0
2023-01-01T00:05:36.591Z,0
2023-01-01T00:06:17.088Z,0
2023-01-01T00:06:57.612Z,0
2023-01-01T00:07:38.124Z,0
2023-01-01T00:10:53.764Z,0
2023-01-01T00:11:34.443Z,0
2023-01-01T00:12:14.936Z,0
2023-01-01T00:12:55.629Z,0
2023-01-01T00:16:18.511Z,0
2023-01-01T00:16:59.790Z,0
2023-01-01T00:17:40.360Z,0
2023-01-01T00:18:20.909Z,0
2023-01-01T00:19:01.721Z,0
2023-01-01T00:19:42.338Z,0
2023-01-01T00:20:22.879Z,0
2023-01-01T00:25:49.124Z,0
2023-01-01T00:26:34.772Z,0
2023-01-01T00:27:10.423Z,0
2023-01-01T00:27:51.024Z,0
2023-01-01T00:28:31.597Z,0
2023-01-01T00:29:12.842Z,0
2023-01-01T00:34:38.491Z,0
2023-01-01T00:35:19.129Z,0
2023-01-01T00:37:57.981Z,0
2023-01-01T00:38:39.274Z,0
2023-01-01T00:39:19.881Z,0
2023-01-01T00:40:00.321Z,0
2023-01-01T00:42:42.481Z,0
2023-01-01T00:43:23.038Z,0
2023-01-01T00:44:03.563Z,0
2023-01-01T00:44:44.079Z,0
2023-01-01T00:45:24.623Z,0
2023-01-01T00:46:05.179Z,0
2023-01-01T00:48:43.455Z,0
2023-01-01T00:49:23.997Z,0
2023-01-01T00:50:04.544Z,0
2023-01-01T00:50:45.177Z,0
2023-01-01T00:53:28.304Z,0
2023-01-01T00:54:08.814Z,0
2023-01-01T00:54:49.376Z,0
2023-01-01T00:55:29.976Z,0
2023-01-01T00:56:10.446Z,0
2023-01-01T00:56:51.004Z,0
2023-01-01T00:57:31.588Z,0
2023-01-01T00:58:12.136Z,0
2023-01-01T00:59:00.530Z,0
2023-01-01T01:04:18.320Z,0
2023-01-01T01:04:59.684Z,0
2023-01-01T01:05:40.211Z,0
2023-01-01T01:06:20.789Z,0
2023-01-01T01:07:01.305Z,0
2023-01-01T01:07:41.892Z,0
2023-01-01T01:10:20.603Z,0
2023-01-01T01:11:01.126Z,0
2023-01-01T01:11:42.590Z,0
2023-01-01T01:12:23.139Z,0
2023-01-01T01:16:01.051Z,0
2023-01-01T01:16:42.534Z,0
2023-01-01T01:17:23.676Z,0
2023-01-01T01:18:04.198Z,0
2023-01-01T01:20:17.222Z,0
2023-01-01T01:20:58.499Z,0
2023-01-01T01:21:39.030Z,0
2023-01-01T01:22:22.893Z,0
2023-01-01T01:25:01.889Z,0
2023-01-01T01:25:42.423Z,0
2023-01-01T01:28:20.912Z,0
2023-01-01T01:29:01.450Z,0
2023-01-01T01:29:42.971Z,0
2023-01-01T01:30:23.508Z,0
2023-01-01T01:33:57.367Z,0
2023-01-01T01:34:37.887Z,0
2023-01-01T01:35:18.407Z,0
2023-01-01T01:35:58.946Z,0
2023-01-01T01:40:02.052Z,0
2023-01-01T01:40:42.596Z,0
2023-01-01T01:41:28.570Z,0
2023-01-01T01:42:04.235Z,0
2023-01-01T01:42:44.766Z,0
2023-01-01T01:43:25.279Z,0
2023-01-01T01:44:05.920Z,0
2023-01-01T01:44:46.426Z,0
2023-01-01T01:45:32.940Z,0
2023-01-01T01:50:26.533Z,0
2023-01-01T01:51:08.621Z,0
2023-01-01T01:51:49.242Z,0
2023-01-01T01:52:29.793Z,0
2023-01-01T01:54:58.064Z,0
2023-01-01T01:55:38.604Z,0
2023-01-01T01:56:19.125Z,0
2023-01-01T01:56:59.668Z,0
2023-01-01T02:00:23.018Z,0
2023-01-01T02:01:03.617Z,0
2023-01-01T02:01:44.194Z,0
2023-01-01T02:02:24.776Z,0
2023-01-01T02:03:05.211Z,0
2023-01-01T02:03:45.821Z,0
2023-01-01T02:04:26.386Z,0
2023-01-01T02:05:06.837Z,0
2023-01-01T02:05:47.400Z,0
2023-01-01T02:11:17.464Z,0
2023-01-01T02:11:54.103Z,0
2023-01-01T02:12:34.663Z,0
2023-01-01T02:15:13.165Z,0
2023-01-01T02:15:54.548Z,0
2023-01-01T02:16:35.063Z,0
2023-01-01T02:17:15.579Z,0
2023-01-01T02:19:18.193Z,0
2023-01-01T02:19:58.660Z,0
2023-01-01T02:20:39.184Z,0
2023-01-01T02:21:19.731Z,0
2023-01-01T02:22:00.233Z,0
2023-01-01T02:22:40.763Z,0
2023-01-01T02:23:21.286Z,0
2023-01-01T02:24:01.803Z,0
2023-01-01T02:24:42.338Z,0
2023-01-01T02:30:08.222Z,0
2023-01-01T02:30:48.831Z,0
2023-01-01T02:31:29.276Z,0
2023-01-01T02:32:09.787Z,0
2023-01-01T02:32:50.337Z,0
2023-01-01T02:33:31.544Z,0
2023-01-01T02:34:12.084Z,0
2023-01-01T02:34:52.594Z,0
2023-01-01T02:39:38.115Z,0
2023-01-01T02:42:16.914Z,0
2023-01-01T02:42:57.511Z,0
2023-01-01T02:43:37.989Z,0
2023-01-01T02:46:59.352Z,0
2023-01-01T02:47:39.928Z,0
2023-01-01T02:48:20.462Z,0
2023-01-01T02:49:04.813Z,0
2023-01-01T02:53:04.138Z,0
2023-01-01T02:53:45.396Z,0
2023-01-01T02:54:25.907Z,0
2023-01-01T02:55:06.439Z,0
2023-01-01T02:55:46.959Z,0
2023-01-01T02:56:27.517Z,0
2023-01-01T02:57:08.020Z,0
2023-01-01T02:57:48.554Z,0
2023-01-01T03:04:45.938Z,0
2023-01-01T03:05:26.438Z,0
2023-01-01T03:06:06.959Z,0
2023-01-01T03:06:47.516Z,0
2023-01-01T03:10:50.693Z,0
2023-01-01T03:11:31.218Z,0
2023-01-01T03:12:11.745Z,0
2023-01-01T03:12:52.306Z,0
2023-01-01T03:13:32.817Z,0
2023-01-01T03:14:13.339Z,0
2023-01-01T03:14:53.855Z,0
2023-01-01T03:15:34.382Z,0
2023-01-01T03:16:15.020Z,0
2023-01-01T03:16:55.385Z,0
2023-01-01T03:24:41.575Z,0
2023-01-01T03:25:22.101Z,0
2023-01-01T03:26:02.685Z,0
2023-01-01T03:26:43.388Z,0
2023-01-01T03:29:26.529Z,0
2023-01-01T03:31:54.910Z,0
2023-01-01T03:32:35.420Z,0
2023-01-01T03:33:15.953Z,0
2023-01-01T03:33:56.463Z,0
2023-01-01T03:37:59.684Z,0
2023-01-01T03:38:40.195Z,0
2023-01-01T03:39:20.729Z,0
2023-01-01T03:40:01.267Z,0
2023-01-01T03:40:41.788Z,0
2023-01-01T03:41:22.311Z,0
2023-01-01T03:42:02.867Z,0
2023-01-01T03:44:41.423Z,0
2023-01-01T03:45:21.932Z,0
2023-01-01T03:46:02.436Z,0
2023-01-01T03:46:43.788Z,0
2023-01-01T03:50:06.477Z,0
2023-01-01T03:50:47.015Z,0
2023-01-01T03:51:27.564Z,0
2023-01-01T03:54:06.085Z,0
2023-01-01T03:54:47.560Z,0
2023-01-01T03:55:28.090Z,0
2023-01-01T03:56:08.620Z,0
2023-01-01T03:58:50.765Z,0
2023-01-01T03:59:31.318Z,0
2023-01-01T04:00:11.829Z,0
2023-01-01T04:00:52.400Z,0
2023-01-01T04:01:33.087Z,0
2023-01-01T04:02:13.482Z,0
2023-01-01T04:02:54.015Z,0
2023-01-01T04:03:34.524Z,0
2023-01-01T04:04:15.049Z,0
2023-01-01T04:04:55.605Z,0
2023-01-01T04:10:54.039Z,0
2023-01-01T04:11:34.557Z,0
2023-01-01T04:12:15.075Z,0
2023-01-01T04:12:55.621Z,0
2023-01-01T04:16:58.765Z,0
2023-01-01T04:17:39.277Z,0
2023-01-01T04:18:19.792Z,0
2023-01-01T04:19:00.338Z,0
2023-01-01T04:19:40.872Z,0
2023-01-01T04:20:21.405Z,0
2023-01-01T04:21:01.965Z,0
2023-01-01T04:21:42.478Z,0
2023-01-01T04:22:22.995Z,0
2023-01-01T04:23:03.543Z,0
2023-01-01T04:29:48.744Z,0
2023-01-01T04:30:29.288Z,0
2023-01-01T04:32:57.642Z,0
2023-01-01T04:33:38.122Z,0
2023-01-01T04:34:18.670Z,0
2023-01-01T04:34:59.191Z,0
2023-01-01T04:39:02.358Z,0
2023-01-01T04:39:42.876Z,0
2023-01-01T04:40:23.424Z,0
2023-01-01T04:41:03.992Z,0
2023-01-01T04:41:44.517Z,0
2023-01-01T04:42:25.071Z,0
2023-01-01T04:43:05.600Z,0
2023-01-01T04:43:46.112Z,0
2023-01-01T04:44:26.702Z,0
2023-01-01T04:45:07.180Z,0
2023-01-01T04:50:32.484Z,0
2023-01-01T04:51:13.054Z,0
2023-01-01T04:51:53.590Z,0
2023-01-01T04:52:34.149Z,0
2023-01-01T04:53:14.688Z,0
2023-01-01T04:53:55.251Z,0
2023-01-01T04:54:35.792Z,0
2023-01-01T04:55:16.342Z,0
2023-01-01T04:55:56.907Z,0
2023-01-01T05:03:22.679Z,0
2023-01-01T05:04:03.235Z,0
2023-01-01T05:04:43.766Z,0
2023-01-01T05:05:24.317Z,0
2023-01-01T05:06:04.863Z,0
2023-01-01T05:06:45.435Z,0
2023-01-01T05:07:25.999Z,0
2023-01-01T05:08:06.504Z,0
2023-01-01T05:08:47.063Z,0
2023-01-01T05:15:32.504Z,0
2023-01-01T05:16:13.082Z,0
2023-01-01T05:18:51.517Z,0
2023-01-01T05:19:32.095Z,0
2023-01-01T05:20:12.564Z,0
2023-01-01T05:20:53.087Z,0
2023-01-01T05:24:56.395Z,0
2023-01-01T05:25:37.585Z,0
2023-01-01T05:26:18.105Z,0
2023-01-01T05:26:58.662Z,0
2023-01-01T05:27:39.210Z,0
2023-01-01T05:28:19.738Z,0
2023-01-01T05:29:00.255Z,0
2023-01-01T05:29:40.782Z,0
2023-01-01T05:36:03.242Z,0
2023-01-01T05:36:43.790Z,0
2023-01-01T05:37:24.307Z,0
2023-01-01T05:38:04.828Z,0
2023-01-01T05:38:45.354Z,0
2023-01-01T05:39:25.879Z,0
2023-01-01T05:40:06.422Z,0
2023-01-01T05:40:46.953Z,0
2023-01-01T05:41:27.559Z,0
2023-01-01T05:42:08.084Z,0
2023-01-01T05:42:48.633Z,0
2023-01-01T05:45:42.289Z,0
2023-01-01T05:46:22.753Z,0
2023-01-01T05:47:03.316Z,0
2023-01-01T05:47:43.841Z,0
2023-01-01T05:53:36.169Z,0
2023-01-01T05:56:11.670Z,0
2023-01-01T05:56:52.919Z,0
2023-01-01T05:57:37.103Z,0
2023-01-01T06:00:17.709Z,0
2023-01-01T06:00:58.262Z,0
2023-01-01T06:01:45.079Z,0
2023-01-01T06:02:19.294Z,0
2023-01-01T06:06:22.428Z,0
2023-01-01T06:07:03.703Z,0
2023-01-01T06:07:48.299Z,0
2023-01-01T06:08:24.746Z,0
2023-01-01T06:09:05.315Z,0
2023-01-01T06:09:45.833Z,0
2023-01-01T06:10:26.380Z,0
2023-01-01T06:17:12.529Z,0
2023-01-01T06:17:53.064Z,0
2023-01-01T06:18:33.571Z,0
2023-01-01T06:19:14.085Z,0
2023-01-01T06:19:54.599Z,0
2023-01-01T06:20:35.149Z,0
2023-01-01T06:21:15.675Z,0
2023-01-01T06:21:56.162Z,0
2023-01-01T06:22:36.738Z,0
2023-01-01T06:23:17.258Z,0
2023-01-01T06:30:02.789Z,0
2023-01-01T06:30:43.328Z,0
2023-01-01T06:31:23.844Z,0
2023-01-01T06:32:04.338Z,0
2023-01-01T06:32:44.893Z,0
2023-01-01T06:33:25.424Z,0
2023-01-01T06:34:05.939Z,0
2023-01-01T06:34:46.463Z,0
2023-01-01T06:35:26.975Z,0
2023-01-01T06:41:32.340Z,0
2023-01-01T06:42:12.875Z,0
2023-01-01T06:42:53.392Z,0
2023-01-01T06:43:33.959Z,0
2023-01-01T06:44:14.456Z,0
2023-01-01T06:44:54.984Z,0
2023-01-01T06:45:35.506Z,0
2023-01-01T06:46:16.072Z,0
2023-01-01T06:46:56.534Z,0
2023-01-01T06:47:37.052Z,0
2023-01-01T06:54:22.550Z,0
2023-01-01T06:55:03.072Z,0
2023-01-01T06:55:43.651Z,0
2023-01-01T06:56:24.150Z,0
2023-01-01T06:57:04.668Z,0
2023-01-01T06:57:45.292Z,0
2023-01-01T06:58:25.843Z,0
2023-01-01T06:59:06.370Z,0
2023-01-01T06:59:46.868Z,0
2023-01-01T07:06:33.296Z,0
2023-01-01T07:07:13.821Z,0
2023-01-01T07:07:54.353Z,0
2023-01-01T07:08:34.914Z,0
2023-01-01T07:09:15.402Z,0
2023-01-01T07:09:55.911Z,0
2023-01-01T07:10:36.529Z,0
2023-01-01T07:11:17.119Z,0
2023-01-01T07:18:03.233Z,0
2023-01-01T07:18:43.795Z,0
2023-01-01T07:19:24.269Z,0
2023-01-01T07:20:04.800Z,5
2023-01-01T07:20:45.330Z,5
2023-01-01T07:21:29.071Z,5
2023-01-01T07:22:06.415Z,5
2023-01-01T07:22:46.954Z,5
2023-01-01T07:29:32.329Z,10
2023-01-01T07:30:13.391Z,10
2023-01-01T07:30:55.467Z,10
2023-01-01T07:31:35.990Z,10
2023-01-01T07:32:16.480Z,10
2023-01-01T07:32:57.003Z,10
2023-01-01T07:40:22.757Z,15
2023-01-01T07:41:03.310Z,15
2023-01-01T07:41:44.655Z,15
2023-01-01T07:42:26.171Z,15
2023-01-01T07:43:06.691Z,15
2023-01-01T07:43:47.219Z,15
2023-01-01T07:50:32.613Z,20
2023-01-01T07:51:13.182Z,25
2023-01-01T07:51:53.713Z,25
2023-01-01T07:52:34.293Z,25
2023-01-01T07:53:14.834Z,25
2023-01-01T07:53:58.222Z,25
2023-01-01T07:54:35.899Z,25
2023-01-01T07:55:16.412Z,25
2023-01-01T07:55:56.936Z,30
2023-01-01T08:03:22.854Z,35
2023-01-01T08:04:03.335Z,35
2023-01-01T08:04:43.807Z,35
2023-01-01T08:05:26.744Z,40
2023-01-01T08:06:04.868Z,40
2023-01-01T08:06:45.418Z,40
2023-01-01T08:07:25.937Z,40
2023-01-01T08:08:06.465Z,40
2023-01-01T08:08:46.993Z,40
2023-01-01T08:13:32.421Z,45
2023-01-01T08:14:12.911Z,45
2023-01-01T08:14:53.429Z,45
2023-01-01T08:15:33.960Z,45
2023-01-01T08:16:14.493Z,45
2023-01-01T08:16:55.040Z,45
2023-01-01T08:17:37.768Z,45
2023-01-01T08:18:16.136Z,50
2023-01-01T08:18:56.665Z,50
2023-01-01T08:19:37.180Z,50
2023-01-01T08:22:31.919Z,55
2023-01-01T08:23:12.452Z,55
2023-01-01T08:23:52.975Z,55
2023-01-01T08:24:33.497Z,55
2023-01-01T08:26:48.044Z,60
2023-01-01T08:27:28.564Z,60
2023-01-01T08:28:09.092Z,60
2023-01-01T08:28:53.577Z,65
2023-01-01T08:32:52.827Z,70
2023-01-01T08:33:33.423Z,70
2023-01-01T08:34:13.942Z,70
2023-01-01T08:34:54.559Z,70
2023-01-01T08:35:35.077Z,70
2023-01-01T08:36:15.596Z,75
2023-01-01T08:36:56.638Z,75
2023-01-01T08:37:37.163Z,75
2023-01-01T08:38:17.694Z,75
2023-01-01T08:45:03.096Z,75
2023-01-01T08:45:43.608Z,75
2023-01-01T08:46:24.793Z,75
2023-01-01T08:47:06.251Z,75
2023-01-01T08:47:46.766Z,75
2023-01-01T08:48:30.859Z,75
2023-01-01T08:53:23.676Z,80
2023-01-01T08:54:05.213Z,80
2023-01-01T08:54:45.692Z,80
2023-01-01T08:55:28.101Z,80
2023-01-01T08:57:42.567Z,80
2023-01-01T08:58:23.100Z,80
2023-01-01T08:59:04.587Z,80
2023-01-01T08:59:44.213Z,80
2023-01-01T09:02:27.332Z,80
2023-01-01T09:03:07.744Z,85
2023-01-01T09:03:48.244Z,85
2023-01-01T09:04:28.774Z,85
2023-01-01T09:05:09.300Z,85
2023-01-01T09:05:50.709Z,85
2023-01-01T09:06:31.260Z,85
2023-01-01T09:07:11.766Z,85
2023-01-01T09:13:58.138Z,90
2023-01-01T09:14:38.649Z,90
2023-01-01T09:15:19.304Z,90
2023-01-01T09:15:59.816Z,95
2023-01-01T09:16:44.153Z,95
2023-01-01T09:17:20.868Z,95
2023-01-01T09:18:01.401Z,95
2023-01-01T09:18:41.943Z,100
2023-01-01T09:25:27.339Z,110
2023-01-01T09:26:07.856Z,115
2023-01-01T09:26:48.386Z,115
2023-01-01T09:27:28.910Z,110
2023-01-01T09:28:09.976Z,110
2023-01-01T09:28:50.531Z,115
2023-01-01T09:29:31.089Z,110
2023-01-01T09:30:11.621Z,110
2023-01-01T09:37:37.518Z,115
2023-01-01T09:38:18.033Z,120
2023-01-01T09:38:58.557Z,120
2023-01-01T09:39:39.073Z,115
2023-01-01T09:40:19.605Z,115
2023-01-01T09:41:00.133Z,115
2023-01-01T09:41:40.673Z,125
2023-01-01T09:42:21.222Z,125
2023-01-01T09:43:01.729Z,125
2023-01-01T09:46:35.984Z,125
2023-01-01T09:47:16.447Z,120
2023-01-01T09:47:56.987Z,125
2023-01-01T09:48:37.539Z,125
2023-01-01T09:52:40.763Z,125
2023-01-01T09:53:21.353Z,120
2023-01-01T09:54:01.894Z,120
2023-01-01T09:54:42.401Z,120
2023-01-01T09:55:22.981Z,120
2023-01-01T09:56:03.492Z,120
2023-01-01T09:56:44.035Z,125
2023-01-01T09:57:24.569Z,125
2023-01-01T09:58:05.064Z,125
2023-01-01T10:00:58.764Z,120
2023-01-01T10:01:39.344Z,120
2023-01-01T10:02:19.900Z,130
2023-01-01T10:03:00.377Z,130
2023-01-01T10:05:54.497Z,120
2023-01-01T10:06:35.001Z,120
2023-01-01T10:07:16.270Z,120
2023-01-01T10:09:55.268Z,130
2023-01-01T10:10:35.855Z,135
2023-01-01T10:11:16.360Z,135
2023-01-01T10:11:56.854Z,135
2023-01-01T10:17:32.829Z,135
2023-01-01T10:18:13.428Z,135
2023-01-01T10:18:53.910Z,140
2023-01-01T10:19:34.429Z,135
2023-01-01T10:23:15.353Z,130
2023-01-01T10:23:55.912Z,130
2023-01-01T10:24:36.403Z,125
2023-01-01T10:25:16.920Z,125
2023-01-01T10:29:20.303Z,135
2023-01-01T10:30:04.082Z,135
2023-01-01T10:30:41.336Z,135
2023-01-01T10:31:21.987Z,135
2023-01-01T10:32:02.463Z,135
2023-01-01T10:32:42.999Z,140
2023-01-01T10:33:23.611Z,140
2023-01-01T10:34:04.101Z,140
2023-01-01T10:34:44.626Z,140
2023-01-01T10:38:19.716Z,140
2023-01-01T10:39:00.257Z,140
2023-01-01T10:39:40.763Z,145
2023-01-01T10:40:24.956Z,145
2023-01-01T10:42:38.116Z,145
2023-01-01T10:43:19.410Z,145
2023-01-01T10:43:59.933Z,145
2023-01-01T10:44:40.461Z,145
2023-01-01T10:48:03.165Z,150
2023-01-01T10:48:43.664Z,155
2023-01-01T10:49:24.212Z,165
2023-01-01T10:51:54.408Z,185
2023-01-01T10:52:35.181Z,185
2023-01-01T10:53:15.808Z,185
2023-01-01T10:53:56.408Z,175
2023-01-01T10:56:38.817Z,180
2023-01-01T10:57:19.354Z,180
2023-01-01T10:58:02.685Z,190
2023-01-01T11:00:57.568Z,215
2023-01-01T11:01:38.183Z,215
2023-01-01T11:02:18.806Z,210
2023-01-01T11:02:59.134Z,200
2023-01-01T11:08:18.160Z,170
2023-01-01T11:08:58.659Z,165
2023-01-01T11:09:39.160Z,160
2023-01-01T11:10:19.717Z,155
2023-01-01T11:13:03.394Z,155
2023-01-01T11:13:13.917Z,155
2023-01-01T11:13:55.834Z,150
2023-01-01T11:16:35.859Z,160
2023-01-01T11:17:16.335Z,160
2023-01-01T11:17:56.885Z,175
2023-01-01T11:18:37.446Z,185
2023-01-01T11:22:40.723Z,245
2023-01-01T11:23:21.268Z,240
2023-01-01T11:24:01.867Z,245
2023-01-01T11:24:43.086Z,240
2023-01-01T11:25:23.626Z,240
2023-01-01T11:26:04.133Z,240
2023-01-01T11:26:47.824Z,235
2023-01-01T11:27:25.238Z,235
2023-01-01T11:30:18.893Z,245
2023-01-01T11:30:59.454Z,250
2023-01-01T11:31:39.895Z,250
2023-01-01T11:32:21.231Z,245
2023-01-01T11:35:43.890Z,240
2023-01-01T11:36:24.454Z,240
2023-01-01T11:37:05.006Z,240
2023-01-01T11:37:46.092Z,235
2023-01-01T11:38:30.059Z,230
2023-01-01T11:39:07.158Z,220
2023-01-01T11:43:22.708Z,195
2023-01-01T11:44:03.236Z,190
2023-01-01T11:44:43.792Z,170
2023-01-01T11:45:24.323Z,160
2023-01-01T11:49:27.836Z,150
2023-01-01T11:50:08.246Z,150
2023-01-01T11:50:53.600Z,150
2023-01-01T11:51:29.299Z,155
2023-01-01T11:52:09.825Z,150
2023-01-01T11:52:50.381Z,150
2023-01-01T11:53:30.906Z,150
2023-01-01T11:56:09.429Z,150
2023-01-01T11:56:49.963Z,150
2023-01-01T11:57:30.483Z,150
2023-01-01T11:58:15.962Z,150
2023-01-01T12:01:34.433Z,150
2023-01-01T12:02:14.969Z,150
2023-01-01T12:02:55.490Z,150
2023-01-01T12:05:34.088Z,150
2023-01-01T12:06:14.611Z,145
2023-01-01T12:06:55.166Z,145
2023-01-01T12:07:35.711Z,145
2023-01-01T12:11:39.118Z,185
2023-01-01T12:12:19.597Z,190
2023-01-01T12:13:00.139Z,195
2023-01-01T12:13:40.704Z,195
2023-01-01T12:14:21.228Z,200
2023-01-01T12:15:02.720Z,200
2023-01-01T12:15:43.289Z,200
2023-01-01T12:20:44.050Z,140
2023-01-01T12:21:24.577Z,140
2023-01-01T12:22:05.126Z,140
2023-01-01T12:22:47.546Z,140
2023-01-01T12:25:19.443Z,150
2023-01-01T12:26:00.305Z,150
2023-01-01T12:26:40.804Z,150
2023-01-01T12:27:21.358Z,150
2023-01-01T12:29:40.083Z,145
2023-01-01T12:30:21.440Z,150
2023-01-01T12:31:02.571Z,155
2023-01-01T12:31:43.087Z,160
2023-01-01T12:35:17.047Z,175
2023-01-01T12:35:57.608Z,175
2023-01-01T12:36:38.149Z,170
2023-01-01T12:37:18.692Z,170
2023-01-01T12:40:18.398Z,165
2023-01-01T12:40:55.938Z,155
2023-01-01T12:41:36.373Z,150
2023-01-01T12:42:17.902Z,145
2023-01-01T12:46:52.411Z,150
2023-01-01T12:47:32.931Z,150
2023-01-01T12:48:13.472Z,145
2023-01-01T12:48:54.013Z,145
2023-01-01T12:52:57.232Z,175
2023-01-01T12:53:37.799Z,180
2023-01-01T12:54:18.352Z,185
2023-01-01T12:54:58.892Z,185
2023-01-01T12:55:39.561Z,185
2023-01-01T12:56:23.007Z,180
2023-01-01T12:57:00.539Z,175
2023-01-01T12:57:41.082Z,170
2023-01-01T12:58:21.633Z,165
2023-01-01T13:05:47.380Z,130
2023-01-01T13:06:28.665Z,130
2023-01-01T13:07:08.587Z,125
2023-01-01T13:07:49.135Z,125
2023-01-01T13:08:29.702Z,125
2023-01-01T13:09:10.240Z,120
2023-01-01T13:09:50.697Z,120
2023-01-01T13:10:31.257Z,120
2023-01-01T13:11:11.830Z,120
2023-01-01T13:17:57.091Z,130
2023-01-01T13:18:37.655Z,135
2023-01-01T13:19:18.253Z,135
2023-01-01T13:19:58.793Z,140
2023-01-01T13:20:39.317Z,145
2023-01-01T13:21:20.065Z,145
2023-01-01T13:22:01.263Z,145
2023-01-01T13:22:41.819Z,145
2023-01-01T13:28:07.341Z,145
2023-01-01T13:28:47.899Z,140
2023-01-01T13:29:28.329Z,135
2023-01-01T13:30:08.875Z,135
2023-01-01T13:30:49.504Z,135
2023-01-01T13:31:31.128Z,135
2023-01-01T13:32:11.642Z,130
2023-01-01T13:36:57.272Z,110
2023-01-01T13:37:37.858Z,110
2023-01-01T13:38:18.495Z,110
2023-01-01T13:38:58.957Z,105
2023-01-01T13:39:39.527Z,110
2023-01-01T13:40:20.034Z,110
2023-01-01T13:41:00.567Z,105
2023-01-01T13:41:41.101Z,105
2023-01-01T13:42:21.663Z,110
2023-01-01T13:49:07.086Z,100
2023-01-01T13:49:47.590Z,95
2023-01-01T13:50:28.084Z,95
2023-01-01T13:51:09.540Z,85
2023-01-01T13:52:07.388Z,85
2023-01-01T13:52:30.837Z,80
2023-01-01T13:53:11.447Z,80
2023-01-01T13:53:51.940Z,80
2023-01-01T14:00:37.384Z,55
2023-01-01T14:01:18.005Z,50
2023-01-01T14:01:58.486Z,50
2023-01-01T14:02:39.042Z,50
2023-01-01T14:03:19.465Z,50
2023-01-01T14:03:59.982Z,50
2023-01-01T14:06:13.035Z,45
2023-01-01T14:06:53.569Z,45
2023-01-01T14:07:50.485Z,45
2023-01-01T14:08:14.666Z,45
2023-01-01T14:13:09.899Z,45
2023-01-01T14:13:50.931Z,45
2023-01-01T14:14:31.468Z,45
2023-01-01T14:15:13.430Z,45
2023-01-01T14:17:26.514Z,45
2023-01-01T14:18:07.088Z,45
2023-01-01T14:18:47.645Z,45
2023-01-01T14:19:28.176Z,45
2023-01-01T14:22:51.468Z,40
2023-01-01T14:23:32.040Z,40
2023-01-01T14:24:12.595Z,40
2023-01-01T14:24:53.101Z,40
2023-01-01T14:27:32.381Z,40
2023-01-01T14:28:13.102Z,40
2023-01-01T14:28:53.850Z,40
2023-01-01T14:29:34.666Z,45
2023-01-01T14:31:47.787Z,50
2023-01-01T14:32:28.260Z,50
2023-01-01T14:33:08.811Z,50
2023-01-01T14:33:49.305Z,50
2023-01-01T14:38:44.659Z,50
2023-01-01T14:39:27.856Z,50
2023-01-01T14:40:06.371Z,50
2023-01-01T14:40:46.913Z,45
2023-01-01T14:43:00.001Z,50
2023-01-01T14:43:40.552Z,50
2023-01-01T14:44:21.089Z,50
2023-01-01T14:45:01.611Z,50
2023-01-01T14:47:44.561Z,45
2023-01-01T14:48:25.085Z,45
2023-01-01T14:49:05.628Z,45
2023-01-01T14:49:46.161Z,45
2023-01-01T14:52:24.651Z,40
2023-01-01T14:53:05.197Z,40
2023-01-01T14:53:45.722Z,40
2023-01-01T14:54:26.246Z,40
2023-01-01T14:58:29.530Z,35
2023-01-01T15:01:08.091Z,30
2023-01-01T15:01:48.733Z,30
2023-01-01T15:02:29.218Z,30
2023-01-01T15:03:10.567Z,30
2023-01-01T15:05:52.769Z,25
2023-01-01T15:06:33.286Z,25
2023-01-01T15:07:13.849Z,25
2023-01-01T15:07:54.379Z,20
2023-01-01T15:08:34.902Z,20
2023-01-01T15:09:15.432Z,20
2023-01-01T15:09:55.951Z,20
2023-01-01T15:10:36.499Z,15
2023-01-01T15:11:17.068Z,15
2023-01-01T15:11:57.491Z,15
2023-01-01T15:17:22.639Z,10
2023-01-01T15:18:03.185Z,10
2023-01-01T15:18:43.704Z,10
2023-01-01T15:19:24.291Z,10
2023-01-01T15:20:04.840Z,10
2023-01-01T15:20:45.362Z,10
2023-01-01T15:21:25.900Z,10
2023-01-01T15:22:06.430Z,10
2023-01-01T15:22:46.937Z,5
2023-01-01T15:23:27.466Z,5
2023-01-01T15:29:33.142Z,5
2023-01-01T15:30:14.027Z,5
2023-01-01T15:30:54.162Z,5
2023-01-01T15:31:34.732Z,5
2023-01-01T15:32:15.186Z,5
2023-01-01T15:32:55.704Z,5
2023-01-01T15:33:37.126Z,5
2023-01-01T15:34:17.648Z,5
2023-01-01T15:37:33.693Z,5
2023-01-01T15:38:14.211Z,5
2023-01-01T15:38:54.736Z,5
2023-01-01T15:39:35.300Z,0
2023-01-01T15:42:58.727Z,0
2023-01-01T15:43:39.249Z,0
2023-01-01T15:44:19.808Z,0
2023-01-01T15:45:00.318Z,0
2023-01-01T15:45:40.962Z,0
2023-01-01T15:46:25.026Z,0
2023-01-01T15:47:02.879Z,0
2023-01-01T15:51:08.686Z,0
2023-01-01T15:51:49.210Z,0
2023-01-01T15:54:03.962Z,0
2023-01-01T15:54:44.462Z,0
2023-01-01T15:55:25.239Z,0
2023-01-01T15:56:06.689Z,0
2023-01-01T15:58:19.855Z,0
2023-01-01T15:59:05.227Z,0
2023-01-01T15:59:40.869Z,0
2023-01-01T16:00:21.428Z,0
2023-01-01T16:03:15.675Z,0
2023-01-01T16:03:56.148Z,0
2023-01-01T16:04:36.735Z,0
2023-01-01T16:05:17.247Z,0
2023-01-01T16:07:30.351Z,0
2023-01-01T16:08:10.871Z,0
2023-01-01T16:08:51.399Z,0
2023-01-01T16:09:31.954Z,0
2023-01-01T16:11:45.064Z,0
2023-01-01T16:12:25.618Z,0
2023-01-01T16:13:06.119Z,0
2023-01-01T16:13:47.593Z,0
2023-01-01T16:16:29.783Z,0
2023-01-01T16:17:10.282Z,0
2023-01-01T16:17:50.790Z,0
2023-01-01T16:18:31.305Z,0
2023-01-01T16:19:11.813Z,0
2023-01-01T16:19:52.345Z,0
2023-01-01T16:20:32.944Z,0
2023-01-01T16:21:13.450Z,0
2023-01-01T16:21:54.039Z,0
2023-01-01T16:22:36.768Z,0
2023-01-01T16:27:30.461Z,0
2023-01-01T16:28:10.980Z,0
2023-01-01T16:28:51.522Z,0
2023-01-01T16:31:33.030Z,0
2023-01-01T16:32:13.571Z,0
2023-01-01T16:32:54.077Z,0
2023-01-01T16:33:34.636Z,0
2023-01-01T16:36:58.111Z,0
2023-01-01T16:37:38.673Z,0
2023-01-01T16:38:19.289Z,0
2023-01-01T16:38:59.793Z,0
2023-01-01T16:41:39.424Z,0
2023-01-01T16:42:21.461Z,0
2023-01-01T16:43:02.641Z,0
2023-01-01T16:43:43.149Z,0
2023-01-01T16:46:14.207Z,0
2023-01-01T16:46:54.496Z,0
2023-01-01T16:47:36.481Z,0
2023-01-01T16:48:17.004Z,0
2023-01-01T16:50:30.618Z,0
2023-01-01T16:51:11.194Z,0
2023-01-01T16:51:51.687Z,0
2023-01-01T16:52:33.767Z,0
2023-01-01T16:55:15.130Z,0
2023-01-01T16:55:55.683Z,0
2023-01-01T16:56:36.223Z,0
2023-01-01T16:57:16.724Z,0
2023-01-01T16:58:14.101Z,0
2023-01-01T16:58:48.768Z,0
2023-01-01T16:59:18.325Z,0
2023-01-01T16:59:58.837Z,0
2023-01-01T17:00:39.375Z,0
2023-01-01T17:07:25.057Z,0
2023-01-01T17:08:05.552Z,0
2023-01-01T17:08:46.366Z,0
2023-01-01T17:09:27.517Z,0
2023-01-01T17:10:08.799Z,0
2023-01-01T17:10:51.343Z,0
2023-01-01T17:14:25.629Z,0
2023-01-01T17:15:06.886Z,0
2023-01-01T17:15:47.598Z,0
2023-01-01T17:16:31.464Z,0
2023-01-01T17:19:14.246Z,0
2023-01-01T17:19:22.213Z,0
2023-01-01T17:20:03.254Z,0
2023-01-01T17:20:43.784Z,0
2023-01-01T17:22:46.169Z,0
2023-01-01T17:23:26.681Z,0
2023-01-01T17:24:07.331Z,0
2023-01-01T17:24:47.864Z,0
2023-01-01T17:25:28.370Z,0
2023-01-01T17:26:08.904Z,0
2023-01-01T17:26:49.464Z,0
2023-01-01T17:27:29.999Z,0
2023-01-01T17:28:10.524Z,0
2023-01-01T17:36:29.252Z,0
2023-01-01T17:37:09.799Z,0
2023-01-01T17:37:50.303Z,0
2023-01-01T17:38:30.808Z,0
2023-01-01T17:41:53.469Z,0
2023-01-01T17:42:34.545Z,0
2023-01-01T17:43:16.042Z,0
2023-01-01T17:43:56.542Z,0
2023-01-01T17:44:37.087Z,0
2023-01-01T17:45:17.690Z,0
2023-01-01T17:51:35.266Z,0
2023-01-01T17:52:15.833Z,0
2023-01-01T17:52:57.296Z,0
2023-01-01T17:53:37.857Z,0
2023-01-01T17:56:19.954Z,0
2023-01-01T17:57:00.510Z,0
2023-01-01T17:57:41.036Z,0
2023-01-01T17:58:21.544Z,0
2023-01-01T17:59:02.084Z,0
2023-01-01T17:59:42.614Z,0
2023-01-01T18:00:23.151Z,0
2023-01-01T18:01:03.691Z,0
2023-01-01T18:01:44.426Z,0
2023-01-01T18:02:24.854Z,0
2023-01-01T18:09:10.100Z,0
2023-01-01T18:09:50.648Z,0
2023-01-01T18:10:31.152Z,0
2023-01-01T18:11:11.692Z,0
2023-01-01T18:11:52.211Z,0
2023-01-01T18:12:32.749Z,0
2023-01-01T18:13:13.413Z,0
2023-01-01T18:13:53.929Z,0
2023-01-01T18:14:34.466Z,0
2023-01-01T18:22:12.394Z,0
2023-01-01T18:22:53.959Z,0
2023-01-01T18:23:35.861Z,0
2023-01-01T18:24:17.371Z,0
2023-01-01T18:26:30.406Z,0
2023-01-01T18:27:10.967Z,0
2023-01-01T18:27:57.263Z,0
2023-01-01T18:28:32.053Z,0
2023-01-01T18:32:35.268Z,0
2023-01-01T18:33:15.762Z,0
2023-01-01T18:33:56.296Z,0
2023-01-01T18:34:36.821Z,0
2023-01-01T18:35:17.365Z,0
2023-01-01T18:35:58.010Z,0
2023-01-01T18:36:38.457Z,0
2023-01-01T18:37:18.966Z,0
2023-01-01T18:37:59.508Z,0